Time;durP1;ratioP1;P1;durP2;ratioP2;P2;SDS_P1;SDS_P2;PMS_P1;PMS_P2;Temp;Humidity;BMP_temperature;BMP_pressure;BME280_temperature;BME280_humidity;BME280_pressure;Samples;Min_cycle;Max_cycle;Signal;HPM_P1;HPM_P2
2021/03/07 00:00:41;;;;;;;2.88;1.25;;;19.80;46.40;;;;;;5045259;28;20055;-32
2021/03/07 00:03:07;;;;;;;3.15;1.40;;;19.80;46.40;;;;;;5063260;28;20538;-32
2021/03/07 00:05:34;;;;;;;1.85;1.20;;;19.80;46.40;;;;;;5063384;28;20033;-33
2021/03/07 00:08:02;;;;;;;2.13;1.50;;;19.80;46.40;;;;;;5063276;28;20045;-32
2021/03/07 00:10:28;;;;;;;2.80;1.40;;;19.80;46.40;;;;;;5063220;28;20036;-32
2021/03/07 00:12:55;;;;;;;1.60;1.17;;;19.80;46.40;;;;;;5058833;28;20044;-32
2021/03/07 00:15:22;;;;;;;2.05;1.40;;;19.80;46.40;;;;;;5092331;28;20082;-32
2021/03/07 00:17:49;;;;;;;1.67;1.38;;;19.80;46.40;;;;;;5082857;28;20036;-32
2021/03/07 00:20:16;;;;;;;2.33;1.33;;;19.80;46.40;;;;;;5101917;28;20040;-32
2021/03/07 00:22:42;;;;;;;3.00;1.50;;;19.80;46.50;;;;;;5100666;28;20028;-32
2021/03/07 00:25:09;;;;;;;5.38;1.67;;;19.80;46.50;;;;;;5092354;28;20017;-33
2021/03/07 00:27:36;;;;;;;3.00;1.40;;;19.80;46.50;;;;;;5086490;28;20060;-32
2021/03/07 00:30:04;;;;;;;2.28;1.40;;;19.80;46.50;;;;;;5080890;28;20658;-32
2021/03/07 00:32:30;;;;;;;4.10;1.50;;;19.70;46.50;;;;;;5088860;28;20031;-32
2021/03/07 00:34:56;;;;;;;2.33;1.60;;;19.70;46.50;;;;;;5080666;28;20040;-32
2021/03/07 00:37:23;;;;;;;4.40;1.27;;;19.70;46.50;;;;;;5077268;28;20037;-32
2021/03/07 00:39:49;;;;;;;4.43;1.27;;;19.70;46.60;;;;;;5096184;28;20590;-32
2021/03/07 00:42:15;;;;;;;4.30;1.50;;;19.70;46.60;;;;;;5082807;28;20092;-32
2021/03/07 00:44:41;;;;;;;2.40;1.40;;;19.70;46.60;;;;;;5079530;28;20072;-32
2021/03/07 00:47:08;;;;;;;3.58;1.50;;;19.70;46.60;;;;;;5097447;28;20039;-33
2021/03/07 00:49:34;;;;;;;2.08;1.20;;;19.70;46.70;;;;;;5093301;28;20120;-32
2021/03/07 00:52:00;;;;;;;4.28;1.48;;;19.70;46.70;;;;;;5097698;28;20030;-32
2021/03/07 00:54:26;;;;;;;3.67;1.50;;;19.70;46.70;;;;;;5070175;28;20040;-32
2021/03/07 00:56:53;;;;;;;2.38;1.40;;;19.70;46.70;;;;;;5098726;28;20034;-33
2021/03/07 00:59:20;;;;;;;1.92;1.50;;;19.60;46.70;;;;;;5088876;28;20043;-32
2021/03/07 01:01:46;;;;;;;5.03;1.35;;;19.60;46.70;;;;;;5074181;28;20035;-32
2021/03/07 01:04:13;;;;;;;3.33;1.55;;;19.60;46.70;;;;;;5097985;28;20024;-32
2021/03/07 01:06:39;;;;;;;2.17;1.15;;;19.60;46.70;;;;;;5090107;28;20031;-32
2021/03/07 01:09:05;;;;;;;2.20;1.25;;;19.60;46.70;;;;;;5090329;28;20078;-32
2021/03/07 01:11:31;;;;;;;3.72;1.42;;;19.60;46.70;;;;;;5097022;28;20036;-33
2021/03/07 01:13:58;;;;;;;2.25;1.48;;;19.60;46.80;;;;;;5085629;28;20083;-32
2021/03/07 01:16:24;;;;;;;3.33;1.50;;;19.60;46.80;;;;;;5096296;28;20028;-32
2021/03/07 01:18:50;;;;;;;3.43;1.60;;;19.60;46.70;;;;;;5091544;28;20032;-32
2021/03/07 01:21:16;;;;;;;3.50;1.50;;;19.60;46.80;;;;;;5088716;28;20354;-32
2021/03/07 01:23:43;;;;;;;2.75;1.30;;;19.50;46.70;;;;;;5098614;28;20024;-33
2021/03/07 01:26:09;;;;;;;2.92;1.67;;;19.50;46.80;;;;;;5085501;28;20025;-32
2021/03/07 01:28:35;;;;;;;2.20;1.40;;;19.50;46.80;;;;;;5089346;28;20020;-32
2021/03/07 01:31:01;;;;;;;2.78;1.30;;;19.50;46.80;;;;;;5091189;28;20467;-32
2021/03/07 01:33:28;;;;;;;2.90;1.90;;;19.50;46.80;;;;;;5078360;28;20074;-32
2021/03/07 01:35:54;;;;;;;1.90;1.30;;;19.50;46.80;;;;;;5062296;28;20063;-33
2021/03/07 01:38:20;;;;;;;4.53;1.50;;;19.50;46.80;;;;;;5063612;28;20039;-32
2021/03/07 01:40:48;;;;;;;3.13;1.60;;;19.40;46.80;;;;;;5062023;28;20040;-32
2021/03/07 01:43:15;;;;;;;2.55;1.50;;;19.40;46.70;;;;;;5079308;28;20020;-32
2021/03/07 01:45:41;;;;;;;4.18;1.73;;;19.40;46.90;;;;;;5082023;28;20092;-32
2021/03/07 01:48:09;;;;;;;2.85;1.35;;;19.40;46.70;;;;;;5081977;28;20106;-33
2021/03/07 01:50:38;;;;;;;1.90;1.58;;;19.40;46.90;;;;;;5082522;28;20052;-33
2021/03/07 01:53:04;;;;;;;3.25;1.42;;;19.40;46.80;;;;;;5085526;28;20021;-32
2021/03/07 01:55:34;;;;;;;1.85;1.33;;;19.40;46.90;;;;;;5085686;28;20119;-32
2021/03/07 01:58:10;;;;;;;1.85;1.45;;;19.40;46.80;;;;;;5085811;28;20113;-32
2021/03/07 02:00:36;;;;;;;1.92;1.45;;;19.30;46.80;;;;;;5085286;28;20028;-33
2021/03/07 02:03:03;;;;;;;3.17;1.55;;;19.30;46.80;;;;;;5067426;28;20043;-32
2021/03/07 02:05:29;;;;;;;1.98;1.60;;;19.30;46.80;;;;;;5065719;28;20098;-32
2021/03/07 02:07:55;;;;;;;3.03;1.50;;;19.30;46.80;;;;;;5065313;28;20795;-32
2021/03/07 02:10:40;;;;;;;1.33;1.23;;;19.30;46.80;;;;;;5065500;28;20029;-31
2021/03/07 02:13:17;;;;;;;2.17;1.38;;;19.30;46.80;;;;;;5065227;28;20051;-32
2021/03/07 02:15:46;;;;;;;2.58;1.40;;;19.20;46.70;;;;;;5065269;28;20049;-32
2021/03/07 02:18:12;;;;;;;1.95;1.50;;;19.20;46.70;;;;;;5047424;28;20032;-32
2021/03/07 02:20:50;;;;;;;2.47;1.50;;;19.30;46.80;;;;;;5053953;28;20028;-34
2021/03/07 02:23:23;;;;;;;2.00;1.35;;;19.20;46.90;;;;;;5088793;28;20028;-32
2021/03/07 02:25:50;;;;;;;1.90;1.50;;;19.20;46.90;;;;;;5062421;28;20112;-31
2021/03/07 02:28:16;;;;;;;1.90;1.50;;;19.20;46.90;;;;;;5047260;28;20029;-39
2021/03/07 02:30:43;;;;;;;2.53;1.75;;;19.20;46.90;;;;;;5064996;28;20044;-36
2021/03/07 02:33:12;;;;;;;1.90;1.50;;;19.20;46.90;;;;;;5065499;28;20028;-35
2021/03/07 02:35:40;;;;;;;1.65;1.52;;;19.20;46.90;;;;;;5078952;28;20040;-36
2021/03/07 02:38:07;;;;;;;2.28;1.40;;;19.10;46.90;;;;;;5079970;28;20024;-37
2021/03/07 02:40:34;;;;;;;1.67;1.55;;;19.10;46.90;;;;;;5050256;28;20029;-35
2021/03/07 02:43:01;;;;;;;2.67;1.58;;;19.10;46.90;;;;;;5067019;28;20032;-37
2021/03/07 02:45:27;;;;;;;2.65;1.55;;;19.10;46.90;;;;;;5066698;28;20024;-38
2021/03/07 02:47:53;;;;;;;1.73;1.40;;;19.00;46.90;;;;;;5050183;28;20047;-38
2021/03/07 02:50:28;;;;;;;2.33;1.65;;;19.00;46.90;;;;;;5066867;28;20051;-37
2021/03/07 02:52:57;;;;;;;2.00;1.60;;;19.10;47.00;;;;;;5084450;28;20044;-36
2021/03/07 02:55:28;;;;;;;2.60;1.70;;;19.00;47.00;;;;;;5065967;28;20391;-38
2021/03/07 02:57:54;;;;;;;1.63;1.42;;;19.00;47.00;;;;;;5046599;28;20036;-36
2021/03/07 03:00:21;;;;;;;2.45;1.67;;;19.00;47.00;;;;;;5046566;28;20555;-37
2021/03/07 03:02:48;;;;;;;1.90;1.60;;;19.00;47.00;;;;;;5046050;28;20033;-38
2021/03/07 03:05:14;;;;;;;1.73;1.55;;;18.90;47.00;;;;;;5030165;28;20036;-37
2021/03/07 03:07:40;;;;;;;2.35;1.63;;;18.90;47.00;;;;;;5046107;28;20050;-35
2021/03/07 03:10:07;;;;;;;2.30;1.87;;;18.90;47.00;;;;;;5046512;28;20068;-35
2021/03/07 03:12:34;;;;;;;1.85;1.60;;;18.90;47.00;;;;;;5064462;28;20497;-37
2021/03/07 03:15:00;;;;;;;2.35;1.58;;;18.90;47.10;;;;;;5029652;28;20192;-36
2021/03/07 03:17:26;;;;;;;3.47;1.75;;;18.90;47.10;;;;;;5046189;28;20025;-36
2021/03/07 03:19:53;;;;;;;2.80;1.88;;;18.90;47.10;;;;;;5046316;28;20072;-37
2021/03/07 03:22:19;;;;;;;3.30;1.70;;;18.90;47.10;;;;;;5046124;28;20051;-38
2021/03/07 03:24:45;;;;;;;2.53;1.73;;;18.90;47.10;;;;;;5046191;28;20133;-37
2021/03/07 03:27:13;;;;;;;2.78;1.80;;;18.80;47.10;;;;;;5078254;28;20031;-37
2021/03/07 03:29:40;;;;;;;2.70;1.67;;;18.80;47.10;;;;;;5104241;28;20040;-36
2021/03/07 03:32:06;;;;;;;2.50;1.83;;;18.80;47.20;;;;;;5093870;28;20024;-38
2021/03/07 03:34:33;;;;;;;1.70;1.20;;;18.80;47.20;;;;;;5083093;28;20063;-37
2021/03/07 03:36:59;;;;;;;1.95;1.60;;;18.80;47.20;;;;;;5072856;28;20032;-37
2021/03/07 03:39:27;;;;;;;2.00;1.70;;;18.70;47.10;;;;;;5084160;28;20092;-37
2021/03/07 03:41:59;;;;;;;2.00;1.80;;;18.70;47.10;;;;;;5083147;28;20063;-36
2021/03/07 03:44:28;;;;;;;2.08;1.60;;;18.70;47.20;;;;;;5086515;28;20024;-37
2021/03/07 03:46:57;;;;;;;2.25;1.85;;;18.70;47.20;;;;;;5104075;28;20027;-37
2021/03/07 03:49:53;;;;;;;2.13;1.90;;;18.70;47.30;;;;;;5083060;28;20024;-41
2021/03/07 03:52:21;;;;;;;2.42;1.90;;;18.60;47.20;;;;;;5101808;28;20092;-37
2021/03/07 03:55:09;;;;;;;2.10;1.70;;;18.60;47.30;;;;;;5103718;28;20690;-37
2021/03/07 03:57:35;;;;;;;2.53;2.00;;;18.60;47.30;;;;;;5049901;28;20052;-37
2021/03/07 04:00:04;;;;;;;2.38;1.85;;;18.60;47.30;;;;;;5045354;28;20045;-34
2021/03/07 04:02:30;;;;;;;2.42;1.80;;;18.60;47.30;;;;;;5058800;28;20029;-37
2021/03/07 04:04:57;;;;;;;2.05;1.73;;;18.60;47.30;;;;;;5064948;28;20032;-35
2021/03/07 04:07:25;;;;;;;2.30;1.80;;;18.60;47.40;;;;;;5083245;28;20026;-37
2021/03/07 04:09:51;;;;;;;;;;;18.50;47.30;;;;;;5080036;28;20062;-34
2021/03/07 04:12:17;;;;;;;2.45;1.80;;;18.50;47.40;;;;;;5082561;28;19908;-37
2021/03/07 04:14:43;;;;;;;3.40;1.92;;;18.50;47.40;;;;;;5066982;28;20028;-37
2021/03/07 04:17:10;;;;;;;2.58;2.00;;;18.50;48.00;;;;;;5066978;28;20032;-36
2021/03/07 04:19:36;;;;;;;2.10;1.60;;;18.50;47.40;;;;;;5070852;28;20016;-38
2021/03/07 04:22:02;;;;;;;2.25;2.05;;;18.40;47.50;;;;;;5068594;28;20025;-35
2021/03/07 04:24:28;;;;;;;1.90;1.70;;;18.50;47.60;;;;;;5043835;28;20021;-36
2021/03/07 04:26:57;;;;;;;2.85;2.22;;;18.40;47.50;;;;;;5051694;28;20036;-37
2021/03/07 04:29:25;;;;;;;3.15;2.33;;;18.40;47.60;;;;;;5076805;28;20073;-35
2021/03/07 04:31:52;;;;;;;2.78;2.00;;;18.30;47.30;;;;;;5065923;28;20037;-37
2021/03/07 04:34:18;;;;;;;;;;;18.30;47.20;;;;;;5091063;28;20035;-38
2021/03/07 04:36:44;;;;;;;2.95;2.40;;;18.30;47.20;;;;;;5070862;28;19916;-36
2021/03/07 04:39:11;;;;;;;4.40;2.10;;;18.30;47.10;;;;;;5091840;28;20111;-36
2021/03/07 04:41:37;;;;;;;4.30;2.50;;;18.30;47.30;;;;;;5073384;28;20103;-35
2021/03/07 04:44:03;;;;;;;3.80;2.30;;;18.30;47.20;;;;;;5088596;28;20039;-34
2021/03/07 04:46:29;;;;;;;4.15;2.50;;;18.30;47.40;;;;;;5093430;28;20050;-36
2021/03/07 04:48:56;;;;;;;3.60;2.22;;;18.20;47.40;;;;;;5092290;28;20020;-36
2021/03/07 04:51:22;;;;;;;4.72;2.35;;;18.30;47.40;;;;;;5085229;28;20032;-37
2021/03/07 04:53:49;;;;;;;2.60;2.27;;;18.20;47.40;;;;;;5096907;28;20028;-36
2021/03/07 04:56:15;;;;;;;3.28;2.50;;;18.20;47.50;;;;;;5083517;28;20039;-37
2021/03/07 04:58:41;;;;;;;3.55;2.60;;;18.20;47.50;;;;;;5071315;28;20050;-36
2021/03/07 05:01:07;;;;;;;5.32;2.25;;;18.20;47.50;;;;;;5070667;28;20031;-36
2021/03/07 05:03:34;;;;;;;3.60;2.15;;;18.20;47.60;;;;;;5084021;28;20032;-35
2021/03/07 05:06:00;;;;;;;3.53;2.60;;;18.20;47.60;;;;;;5089724;28;20032;-36
2021/03/07 05:08:27;;;;;;;4.75;2.58;;;18.20;47.60;;;;;;5081283;28;20078;-36
2021/03/07 05:10:53;;;;;;;2.70;2.10;;;18.20;47.70;;;;;;5087698;28;20028;-33
2021/03/07 05:13:20;;;;;;;3.42;2.58;;;18.10;47.70;;;;;;5097203;28;20016;-35
2021/03/07 05:15:46;;;;;;;2.90;2.17;;;18.10;47.70;;;;;;5091453;28;20095;-37
2021/03/07 05:18:12;;;;;;;3.95;2.58;;;18.10;47.80;;;;;;5085138;28;20020;-36
2021/03/07 05:20:38;;;;;;;3.65;2.60;;;18.10;47.80;;;;;;5085788;28;20045;-36
2021/03/07 05:23:04;;;;;;;3.55;2.10;;;18.10;47.90;;;;;;5097392;28;20400;-36
2021/03/07 05:25:30;;;;;;;4.88;2.72;;;18.10;47.90;;;;;;5090647;28;20020;-36
2021/03/07 05:27:57;;;;;;;4.20;2.50;;;18.10;47.90;;;;;;5092998;28;20028;-36
2021/03/07 05:30:23;;;;;;;4.18;2.72;;;18.10;47.90;;;;;;5090337;28;20044;-37
2021/03/07 05:32:52;;;;;;;3.45;2.35;;;18.00;48.00;;;;;;5092553;28;20021;-37
2021/03/07 05:35:18;;;;;;;4.47;2.47;;;18.00;47.90;;;;;;5095642;28;20047;-37
2021/03/07 05:37:44;;;;;;;3.67;2.50;;;18.00;48.00;;;;;;5077338;28;20025;-34
2021/03/07 05:40:11;;;;;;;3.63;2.33;;;18.00;48.00;;;;;;5070156;28;20085;-36
2021/03/07 05:42:37;;;;;;;4.00;2.28;;;18.00;48.00;;;;;;5102137;28;20063;-36
2021/03/07 05:45:04;;;;;;;3.72;2.70;;;18.00;48.00;;;;;;5100948;28;20020;-34
2021/03/07 05:47:30;;;;;;;4.87;2.57;;;18.00;48.20;;;;;;5088531;28;20035;-35
2021/03/07 05:49:56;;;;;;;4.88;2.53;;;17.90;48.10;;;;;;5076831;28;20300;-33
2021/03/07 05:52:23;;;;;;;3.83;2.38;;;17.90;48.10;;;;;;5089749;28;20032;-37
2021/03/07 05:54:52;;;;;;;4.82;2.45;;;17.90;48.10;;;;;;5102549;28;20067;-36
2021/03/07 05:57:22;;;;;;;4.80;2.70;;;17.90;48.10;;;;;;5075094;28;20055;-36
2021/03/07 05:59:49;;;;;;;5.97;2.75;;;17.90;48.20;;;;;;5075661;28;20128;-35
2021/03/07 06:02:15;;;;;;;3.47;2.65;;;17.90;48.20;;;;;;5087951;28;20020;-37
2021/03/07 06:04:53;;;;;;;3.65;2.40;;;17.90;48.20;;;;;;5100906;28;20020;-38
2021/03/07 06:07:19;;;;;;;;;;;17.80;48.20;;;;;;5077192;28;20016;-36
2021/03/07 06:09:46;;;;;;;3.38;2.28;;;17.80;48.20;;;;;;5105684;28;19983;-37
2021/03/07 06:12:16;;;;;;;3.92;2.95;;;17.80;48.20;;;;;;5090612;28;20056;-36
2021/03/07 06:14:44;;;;;;;4.32;2.63;;;17.70;48.20;;;;;;5101949;28;20469;-37
2021/03/07 06:17:09;;;;;;;;;;;17.70;48.20;;;;;;5085818;28;20061;-37
2021/03/07 06:19:54;;;;;;;4.07;2.78;;;17.80;48.30;;;;;;5095048;28;19911;-37
2021/03/07 06:22:20;;;;;;;4.40;3.10;;;17.70;48.30;;;;;;5089499;28;20059;-37
2021/03/07 06:24:47;;;;;;;4.55;2.75;;;17.70;48.40;;;;;;5102019;28;20046;-36
2021/03/07 06:27:14;;;;;;;3.78;2.67;;;17.70;48.30;;;;;;5091469;28;20020;-35
2021/03/07 06:30:06;;;;;;;2.22;2.00;;;17.70;48.30;;;;;;5096701;28;20028;-35
2021/03/07 06:32:53;;;;;;;4.15;2.90;;;17.70;48.30;;;;;;5094843;28;20032;-38
2021/03/07 06:35:33;;;;;;;3.17;2.45;;;17.70;48.40;;;;;;5095396;28;20047;-37
2021/03/07 06:38:07;;;;;;;4.28;2.70;;;17.60;48.30;;;;;;5097058;28;20024;-37
2021/03/07 06:40:44;;;;;;;3.88;3.10;;;17.60;48.40;;;;;;5092638;28;20067;-34
2021/03/07 06:43:19;;;;;;;4.55;3.05;;;17.60;48.40;;;;;;5099148;28;20021;-37
2021/03/07 06:45:45;;;;;;;3.40;2.70;;;17.60;48.40;;;;;;5095452;28;20631;-36
2021/03/07 06:48:12;;;;;;;3.70;2.35;;;17.50;48.30;;;;;;5090478;28;20032;-38
2021/03/07 06:50:57;;;;;;;3.10;2.63;;;17.50;48.40;;;;;;5101493;28;20024;-38
2021/03/07 06:53:41;;;;;;;4.70;2.70;;;17.50;48.40;;;;;;5082438;28;20039;-36
2021/03/07 06:56:07;;;;;;;4.65;2.75;;;17.50;48.40;;;;;;5072891;28;20040;-36
2021/03/07 06:58:33;;;;;;;4.60;2.83;;;17.50;48.40;;;;;;5070764;28;20106;-38
2021/03/07 07:01:00;;;;;;;3.88;2.70;;;17.50;48.40;;;;;;5095407;28;20032;-36
2021/03/07 07:03:26;;;;;;;3.25;2.67;;;17.50;48.40;;;;;;5091001;28;20046;-37
2021/03/07 07:05:54;;;;;;;3.30;2.87;;;17.50;48.50;;;;;;5074657;28;20028;-38
2021/03/07 07:08:44;;;;;;;3.70;2.75;;;17.50;48.50;;;;;;5094645;28;20100;-37
2021/03/07 07:11:10;;;;;;;4.13;2.90;;;17.40;48.40;;;;;;5076033;28;20035;-38
2021/03/07 07:13:44;;;;;;;3.72;2.63;;;17.40;48.50;;;;;;5094792;28;20478;-38
2021/03/07 07:16:11;;;;;;;2.95;2.45;;;17.40;48.50;;;;;;5098221;28;20040;-37
2021/03/07 07:18:38;;;;;;;4.13;2.97;;;17.40;48.50;;;;;;5087883;28;20108;-37
2021/03/07 07:21:06;;;;;;;;;;;17.30;48.50;;;;;;5099579;28;20019;-36
2021/03/07 07:23:32;;;;;;;4.68;3.03;;;17.40;48.60;;;;;;5081717;28;20026;-37
2021/03/07 07:25:58;;;;;;;4.35;3.25;;;17.30;48.60;;;;;;5073417;28;20028;-36
2021/03/07 07:28:25;;;;;;;3.05;2.65;;;17.30;48.60;;;;;;5100481;28;20091;-36
2021/03/07 07:30:57;;;;;;;4.72;2.97;;;17.30;48.60;;;;;;5091668;28;20027;-35
2021/03/07 07:33:52;;;;;;;3.53;2.90;;;17.30;48.60;;;;;;5045343;28;20020;-37
2021/03/07 07:36:58;;;;;;;3.65;2.60;;;17.30;48.70;;;;;;5088193;28;20083;-37
2021/03/07 07:39:42;;;;;;;3.40;2.90;;;17.20;48.50;;;;;;5063985;28;20024;-37
2021/03/07 07:42:24;;;;;;;3.60;2.90;;;17.20;48.60;;;;;;5073575;28;20046;-37
2021/03/07 07:44:51;;;;;;;3.25;2.40;;;17.20;48.70;;;;;;5096429;28;20024;-37
2021/03/07 07:47:18;;;;;;;3.60;2.72;;;17.20;48.70;;;;;;5096660;28;20032;-37
2021/03/07 07:49:53;;;;;;;4.57;3.20;;;17.20;48.70;;;;;;5058290;28;20050;-37
2021/03/07 07:52:26;;;;;;;3.65;2.80;;;17.20;48.70;;;;;;5088671;28;20028;-36
2021/03/07 07:55:00;;;;;;;3.22;2.60;;;17.10;48.70;;;;;;5088572;28;20028;-38
2021/03/07 07:57:35;;;;;;;3.75;2.80;;;17.10;48.70;;;;;;5095560;28;20028;-37
2021/03/07 08:00:09;;;;;;;3.20;2.72;;;17.10;48.70;;;;;;5091953;28;20024;-35
2021/03/07 08:02:50;;;;;;;3.20;2.67;;;17.10;48.70;;;;;;5086105;28;20052;-38
2021/03/07 08:05:24;;;;;;;3.30;2.70;;;17.10;48.70;;;;;;5096551;28;20028;-34
2021/03/07 08:08:03;;;;;;;3.33;2.80;;;17.10;48.70;;;;;;5094594;28;20111;-35
2021/03/07 08:10:41;;;;;;;3.55;2.83;;;17.10;48.80;;;;;;5086690;28;20060;-38
2021/03/07 08:13:26;;;;;;;;;;;17.00;48.80;;;;;;5090336;28;20091;-33
2021/03/07 08:15:52;;;;;;;4.15;3.20;;;17.00;48.70;;;;;;5097576;28;19915;-38
2021/03/07 08:18:20;;;;;;;3.33;2.67;;;17.00;48.80;;;;;;5103073;28;20045;-35
2021/03/07 08:20:46;;;;;;;3.65;2.85;;;17.00;48.80;;;;;;5086563;28;20090;-36
2021/03/07 08:23:13;;;;;;;3.47;2.72;;;16.90;48.80;;;;;;5096877;28;20043;-37
2021/03/07 08:25:54;;;;;;;4.07;3.00;;;16.90;48.80;;;;;;5092731;28;20035;-36
2021/03/07 08:28:26;;;;;;;3.15;2.53;;;16.90;48.80;;;;;;5087324;28;20025;-38
2021/03/07 08:30:55;;;;;;;3.67;2.65;;;16.90;48.90;;;;;;5093568;28;20024;-35
2021/03/07 08:33:22;;;;;;;3.50;2.75;;;16.90;48.90;;;;;;5092821;28;20032;-35
2021/03/07 08:36:14;;;;;;;3.17;2.50;;;16.90;48.90;;;;;;5088614;28;20066;-37
2021/03/07 08:38:50;;;;;;;3.35;2.55;;;16.90;48.90;;;;;;5086016;28;20055;-37
2021/03/07 08:41:16;;;;;;;3.65;2.75;;;16.90;48.90;;;;;;5102699;28;20091;-36
2021/03/07 08:43:44;;;;;;;3.85;2.97;;;16.90;49.00;;;;;;5092448;28;20066;-37
2021/03/07 08:46:11;;;;;;;2.70;2.50;;;16.80;48.90;;;;;;5078346;28;20031;-33
2021/03/07 08:48:45;;;;;;;3.42;2.70;;;16.80;48.90;;;;;;5085936;28;20046;-37
2021/03/07 08:51:12;;;;;;;3.55;2.75;;;16.80;48.90;;;;;;5096588;28;20036;-38
2021/03/07 08:53:40;;;;;;;3.23;2.63;;;16.80;48.90;;;;;;5090244;28;20024;-33
2021/03/07 08:56:06;;;;;;;3.72;2.85;;;16.80;49.00;;;;;;5095744;28;20404;-35
2021/03/07 08:58:33;;;;;;;3.22;2.60;;;16.80;48.90;;;;;;5085949;28;20055;-37
2021/03/07 09:00:59;;;;;;;4.28;2.97;;;16.80;49.00;;;;;;5090422;28;20567;-37
2021/03/07 09:03:26;;;;;;;3.70;2.80;;;16.80;49.00;;;;;;5077906;28;20024;-38
2021/03/07 09:05:53;;;;;;;3.25;2.58;;;16.70;48.90;;;;;;5090505;28;20024;-34
2021/03/07 09:08:26;;;;;;;4.93;3.20;;;16.70;49.00;;;;;;5079716;28;20036;-38
2021/03/07 09:10:57;;;;;;;5.70;2.70;;;16.70;49.00;;;;;;5085978;28;20086;-35
2021/03/07 09:13:25;;;;;;;3.30;2.58;;;16.70;49.00;;;;;;5095006;28;20023;-37
2021/03/07 09:15:58;;;;;;;3.42;2.47;;;16.70;49.00;;;;;;5093417;28;20067;-35
2021/03/07 09:18:25;;;;;;;4.18;2.60;;;16.70;49.00;;;;;;5067767;28;20038;-37
2021/03/07 09:20:52;;;;;;;3.88;2.42;;;16.70;49.10;;;;;;5080661;28;20033;-37
2021/03/07 09:23:45;;;;;;;3.08;2.35;;;16.70;49.10;;;;;;5089487;28;20031;-36
2021/03/07 09:26:11;;;;;;;3.50;2.47;;;16.60;49.00;;;;;;5087761;28;20528;-37
2021/03/07 09:28:40;;;;;;;5.05;2.70;;;16.60;49.00;;;;;;5098897;28;20067;-35
2021/03/07 09:31:11;;;;;;;2.97;2.53;;;16.60;49.10;;;;;;5089394;28;20032;-36
2021/03/07 09:33:37;;;;;;;3.35;2.55;;;16.60;49.10;;;;;;5091596;28;20055;-32
2021/03/07 09:36:07;;;;;;;3.50;2.60;;;16.60;49.20;;;;;;5090171;28;20037;-34
2021/03/07 09:38:44;;;;;;;3.20;2.63;;;16.60;49.10;;;;;;5099891;28;20028;-36
2021/03/07 09:41:14;;;;;;;3.42;2.63;;;16.50;49.10;;;;;;5096707;28;20035;-38
2021/03/07 09:43:43;;;;;;;3.50;2.42;;;16.50;49.20;;;;;;5087858;28;20028;-37
2021/03/07 09:46:09;;;;;;;3.05;2.50;;;16.50;49.20;;;;;;5077936;28;20024;-35
2021/03/07 09:48:36;;;;;;;3.85;2.70;;;16.50;49.20;;;;;;5085265;28;20029;-35
2021/03/07 09:51:06;;;;;;;3.67;2.53;;;16.50;49.20;;;;;;5101450;28;20036;-37
2021/03/07 09:53:35;;;;;;;2.88;2.50;;;16.50;49.30;;;;;;5077831;28;20032;-37
2021/03/07 09:56:01;;;;;;;3.10;2.50;;;16.50;49.30;;;;;;5056287;28;20071;-37
2021/03/07 09:58:37;;;;;;;3.22;2.47;;;16.50;49.30;;;;;;5098607;28;20024;-36
2021/03/07 10:01:04;;;;;;;2.90;2.40;;;16.50;49.30;;;;;;5089500;28;20056;-37
2021/03/07 10:03:31;;;;;;;2.97;2.28;;;16.40;49.30;;;;;;5070907;28;20024;-37
2021/03/07 10:06:04;;;;;;;3.13;2.40;;;16.40;49.40;;;;;;5089123;28;20036;-36
2021/03/07 10:08:32;;;;;;;3.03;2.50;;;16.40;49.30;;;;;;5098308;28;20617;-35
2021/03/07 10:11:33;;;;;;;3.17;2.22;;;16.40;49.40;;;;;;5085583;28;20045;-34
2021/03/07 10:14:03;;;;;;;3.20;2.15;;;16.40;49.40;;;;;;4990842;28;20689;-36
2021/03/07 10:16:32;;;;;;;2.65;2.30;;;16.40;49.40;;;;;;4999203;28;20049;-37
2021/03/07 10:19:05;;;;;;;3.33;2.45;;;16.40;49.50;;;;;;4987589;28;20026;-36
2021/03/07 10:21:32;;;;;;;3.80;2.40;;;16.40;49.60;;;;;;4994322;28;20082;-34
2021/03/07 10:24:13;;;;;;;2.67;2.33;;;16.40;49.60;;;;;;4995884;28;20038;-37
2021/03/07 10:26:40;;;;;;;3.78;2.65;;;16.30;49.50;;;;;;4986853;28;20042;-37
2021/03/07 10:29:19;;;;;;;3.70;2.22;;;16.30;49.60;;;;;;4997901;28;20125;-36
2021/03/07 10:32:15;;;;;;;2.45;2.25;;;16.30;49.60;;;;;;4990607;28;20575;-36
2021/03/07 10:34:43;;;;;;;2.50;2.22;;;16.30;49.60;;;;;;4998403;28;20067;-36
2021/03/07 10:37:10;;;;;;;2.95;2.00;;;16.30;49.60;;;;;;4974997;28;20027;-35
2021/03/07 10:39:36;;;;;;;;;;;16.30;49.60;;;;;;4995994;28;20041;-36
2021/03/07 10:42:13;;;;;;;3.97;2.30;;;16.30;49.60;;;;;;4989133;28;19921;-38
2021/03/07 10:44:40;;;;;;;2.95;2.20;;;16.20;49.60;;;;;;4999188;28;20094;-37
2021/03/07 10:47:13;;;;;;;;;;;16.20;49.60;;;;;;5002514;28;20157;-37
2021/03/07 10:49:40;;;;;;;3.03;2.10;;;16.20;49.70;;;;;;5094976;28;19915;-37
2021/03/07 10:52:06;;;;;;;2.50;2.15;;;16.20;49.70;;;;;;5098551;28;20381;-37
2021/03/07 10:54:32;;;;;;;2.63;2.40;;;16.20;49.70;;;;;;5088128;28;20040;-36
2021/03/07 10:56:59;;;;;;;3.28;2.10;;;16.20;49.80;;;;;;5100518;28;20037;-36
2021/03/07 10:59:25;;;;;;;2.45;2.13;;;16.20;49.70;;;;;;5092412;28;20028;-37
2021/03/07 11:01:51;;;;;;;3.42;2.40;;;16.10;49.70;;;;;;5088167;28;20055;-36
2021/03/07 11:04:17;;;;;;;2.03;1.65;;;16.10;49.70;;;;;;5098200;28;20055;-35
2021/03/07 11:06:43;;;;;;;2.60;2.00;;;16.10;49.70;;;;;;5087941;28;20029;-37
2021/03/07 11:09:09;;;;;;;2.80;2.22;;;16.10;49.70;;;;;;5098646;28;20052;-37
2021/03/07 11:11:37;;;;;;;3.00;2.13;;;16.10;49.70;;;;;;5093384;28;20043;-36
2021/03/07 11:14:04;;;;;;;2.80;2.17;;;16.10;49.70;;;;;;5091059;28;20095;-36
2021/03/07 11:16:30;;;;;;;2.50;1.98;;;16.10;49.70;;;;;;5100703;28;20028;-37
2021/03/07 11:18:56;;;;;;;3.00;2.05;;;16.10;49.70;;;;;;5088032;28;20020;-33
2021/03/07 11:21:22;;;;;;;3.33;2.30;;;16.10;49.70;;;;;;5096533;28;20021;-38
2021/03/07 11:23:48;;;;;;;2.83;2.20;;;16.10;49.70;;;;;;5095138;28;20031;-36
2021/03/07 11:26:14;;;;;;;3.10;2.40;;;16.00;49.60;;;;;;5089198;28;20086;-34
2021/03/07 11:28:40;;;;;;;2.88;2.20;;;16.10;49.70;;;;;;5102337;28;20088;-36
2021/03/07 11:31:07;;;;;;;3.30;1.73;;;16.00;49.60;;;;;;5098310;28;20025;-36
2021/03/07 11:33:33;;;;;;;2.63;2.20;;;16.00;49.70;;;;;;5062183;28;20485;-35
2021/03/07 11:35:59;;;;;;;3.15;2.03;;;16.00;49.60;;;;;;5089742;28;20066;-37
2021/03/07 11:38:25;;;;;;;2.58;1.90;;;16.00;49.60;;;;;;5097856;28;20024;-37
2021/03/07 11:40:51;;;;;;;6.00;2.13;;;16.00;49.70;;;;;;5086660;28;20039;-36
2021/03/07 11:43:17;;;;;;;2.92;2.10;;;16.00;49.70;;;;;;5097097;28;20135;-37
2021/03/07 11:45:43;;;;;;;2.50;1.95;;;16.00;49.70;;;;;;5093730;28;20028;-35
2021/03/07 11:48:10;;;;;;;2.63;1.90;;;16.00;49.70;;;;;;5087902;28;20032;-36
2021/03/07 11:50:36;;;;;;;2.10;1.90;;;16.00;49.70;;;;;;5101117;28;20028;-35
2021/03/07 11:53:02;;;;;;;2.90;2.08;;;15.90;49.70;;;;;;5098792;28;20093;-33
2021/03/07 11:55:28;;;;;;;2.35;1.88;;;16.00;49.70;;;;;;5090717;28;20036;-37
2021/03/07 11:57:55;;;;;;;2.65;1.90;;;15.90;49.70;;;;;;5095621;28;20038;-37
2021/03/07 12:00:21;;;;;;;2.35;1.92;;;15.90;49.70;;;;;;5094772;28;20258;-34
2021/03/07 12:02:47;;;;;;;2.42;1.90;;;15.90;49.70;;;;;;5084716;28;20021;-34
2021/03/07 12:05:14;;;;;;;2.40;1.83;;;15.90;49.70;;;;;;5071690;28;20032;-37
2021/03/07 12:07:40;;;;;;;2.58;2.03;;;15.90;49.70;;;;;;5103300;28;20185;-36
2021/03/07 12:10:07;;;;;;;2.65;1.90;;;15.90;49.80;;;;;;5103417;28;20028;-36
2021/03/07 12:12:33;;;;;;;2.88;1.80;;;15.80;49.70;;;;;;5085781;28;20031;-36
2021/03/07 12:14:59;;;;;;;3.53;1.77;;;15.80;49.70;;;;;;5084966;28;20025;-33
2021/03/07 12:17:25;;;;;;;4.00;1.92;;;15.80;50.30;;;;;;5086638;28;20096;-37
2021/03/07 12:19:51;;;;;;;3.58;2.05;;;15.80;49.80;;;;;;5089238;28;20028;-34
2021/03/07 12:22:17;;;;;;;2.72;2.08;;;15.80;49.90;;;;;;5093503;28;20054;-38
2021/03/07 12:24:44;;;;;;;2.40;1.88;;;15.80;49.90;;;;;;5087071;28;20028;-35
2021/03/07 12:27:10;;;;;;;2.50;1.88;;;15.80;50.00;;;;;;5095135;28;20039;-37
2021/03/07 12:29:37;;;;;;;2.22;1.85;;;15.80;50.00;;;;;;5084468;28;20025;-37
2021/03/07 12:32:04;;;;;;;3.20;2.00;;;15.80;50.00;;;;;;5091335;28;20089;-37
2021/03/07 12:34:31;;;;;;;2.00;1.80;;;15.80;50.00;;;;;;5064939;28;20273;-32
2021/03/07 12:36:57;;;;;;;3.22;1.88;;;15.70;50.00;;;;;;5097130;28;20035;-37
2021/03/07 12:39:23;;;;;;;2.72;2.03;;;15.70;50.10;;;;;;5070009;28;20031;-36
2021/03/07 12:41:49;;;;;;;4.28;2.05;;;15.70;50.00;;;;;;5086218;28;20031;-37
2021/03/07 12:44:15;;;;;;;3.45;2.13;;;15.70;50.00;;;;;;5085314;28;20039;-36
2021/03/07 12:46:41;;;;;;;3.78;1.88;;;15.70;50.10;;;;;;5083877;28;20036;-37
2021/03/07 12:49:08;;;;;;;2.60;2.00;;;15.70;50.10;;;;;;5089726;28;20025;-36
2021/03/07 12:51:34;;;;;;;2.35;1.90;;;15.70;50.10;;;;;;5085124;28;20111;-35
2021/03/07 12:54:01;;;;;;;3.15;2.00;;;15.70;50.20;;;;;;5088470;28;20028;-37
2021/03/07 12:56:27;;;;;;;3.28;1.75;;;15.70;50.20;;;;;;5094493;28;20036;-37